Terminal Aerodrome Forecast
Issued by NWS

Home | Current Version | Previous Version | Text Only | Print | Product List | Glossary On
Versions: 1 2 3 4 5 6 7 8 9 10 11 12 13 14 15 16
000
FTUS46 KLOX 250408 AAA
TAFVNY
TAF AMD
KVNY 250408Z 2504/2524 10006KT P6SM BKN025 BKN050
     FM250700 VRB03KT P6SM OVC025
     FM251800 13005KT P6SM SCT030 OVC040
     FM252100 15007KT P6SM BKN050=

USA.gov is the U.S. government's official web portal to all federal, state and local government web resources and services.